sensor_id;sensor_type;location;lat;lon;timestamp;P1;durP1;ratioP1;P2;durP2;ratioP2
4698;SDS011;33708;49.466;11.176;2023-11-21T00:00:33;4.77;;;1.20;;
4698;SDS011;33708;49.466;11.176;2023-11-21T00:02:59;7.73;;;1.37;;
4698;SDS011;33708;49.466;11.176;2023-11-21T00:05:24;4.23;;;1.37;;
4698;SDS011;33708;49.466;11.176;2023-11-21T00:07:50;11.53;;;1.13;;
4698;SDS011;33708;49.466;11.176;2023-11-21T00:10:16;5.67;;;1.50;;
4698;SDS011;33708;49.466;11.176;2023-11-21T00:12:42;3.73;;;1.30;;
4698;SDS011;33708;49.466;11.176;2023-11-21T00:15:08;6.67;;;1.70;;
4698;SDS011;33708;49.466;11.176;2023-11-21T00:17:36;4.30;;;1.23;;
4698;SDS011;33708;49.466;11.176;2023-11-21T00:20:02;6.20;;;1.40;;
4698;SDS011;33708;49.466;11.176;2023-11-21T00:22:31;3.47;;;1.10;;
4698;SDS011;33708;49.466;11.176;2023-11-21T00:24:57;4.10;;;1.10;;
4698;SDS011;33708;49.466;11.176;2023-11-21T00:27:23;6.07;;;1.73;;
4698;SDS011;33708;49.466;11.176;2023-11-21T00:29:48;4.53;;;1.30;;
4698;SDS011;33708;49.466;11.176;2023-11-21T00:32:14;7.70;;;1.50;;
4698;SDS011;33708;49.466;11.176;2023-11-21T00:34:39;3.70;;;1.10;;
4698;SDS011;33708;49.466;11.176;2023-11-21T00:37:05;5.70;;;1.37;;
4698;SDS011;33708;49.466;11.176;2023-11-21T00:39:30;5.67;;;1.37;;
4698;SDS011;33708;49.466;11.176;2023-11-21T00:41:57;3.00;;;1.30;;
4698;SDS011;33708;49.466;11.176;2023-11-21T00:44:23;4.07;;;1.47;;
4698;SDS011;33708;49.466;11.176;2023-11-21T00:46:49;4.13;;;1.20;;
4698;SDS011;33708;49.466;11.176;2023-11-21T00:49:15;3.27;;;1.23;;
4698;SDS011;33708;49.466;11.176;2023-11-21T00:51:41;3.10;;;1.20;;
4698;SDS011;33708;49.466;11.176;2023-11-21T00:54:06;4.27;;;1.40;;
4698;SDS011;33708;49.466;11.176;2023-11-21T00:56:32;3.97;;;1.30;;
4698;SDS011;33708;49.466;11.176;2023-11-21T00:58:58;2.60;;;1.10;;
4698;SDS011;33708;49.466;11.176;2023-11-21T01:01:24;5.00;;;1.50;;
4698;SDS011;33708;49.466;11.176;2023-11-21T01:03:50;5.60;;;1.37;;
4698;SDS011;33708;49.466;11.176;2023-11-21T01:06:15;3.87;;;1.20;;
4698;SDS011;33708;49.466;11.176;2023-11-21T01:08:43;6.10;;;1.37;;
4698;SDS011;33708;49.466;11.176;2023-11-21T01:11:09;8.57;;;1.40;;
4698;SDS011;33708;49.466;11.176;2023-11-21T01:13:37;6.90;;;1.50;;
4698;SDS011;33708;49.466;11.176;2023-11-21T01:16:04;7.00;;;1.90;;
4698;SDS011;33708;49.466;11.176;2023-11-21T01:18:31;4.50;;;1.50;;
4698;SDS011;33708;49.466;11.176;2023-11-21T01:20:57;12.50;;;2.10;;
4698;SDS011;33708;49.466;11.176;2023-11-21T01:23:22;5.00;;;1.53;;
4698;SDS011;33708;49.466;11.176;2023-11-21T01:25:49;5.30;;;1.50;;
4698;SDS011;33708;49.466;11.176;2023-11-21T01:28:16;3.43;;;1.40;;
4698;SDS011;33708;49.466;11.176;2023-11-21T01:30:42;6.77;;;1.73;;
4698;SDS011;33708;49.466;11.176;2023-11-21T01:33:07;10.27;;;2.33;;
4698;SDS011;33708;49.466;11.176;2023-11-21T01:35:33;3.70;;;1.60;;
4698;SDS011;33708;49.466;11.176;2023-11-21T01:37:59;5.87;;;1.60;;
4698;SDS011;33708;49.466;11.176;2023-11-21T01:40:24;6.60;;;1.93;;
4698;SDS011;33708;49.466;11.176;2023-11-21T01:42:50;4.93;;;2.03;;
4698;SDS011;33708;49.466;11.176;2023-11-21T01:45:18;5.87;;;1.73;;
4698;SDS011;33708;49.466;11.176;2023-11-21T01:47:44;4.17;;;1.30;;
4698;SDS011;33708;49.466;11.176;2023-11-21T01:50:11;4.80;;;1.70;;
4698;SDS011;33708;49.466;11.176;2023-11-21T01:52:40;5.30;;;1.83;;
4698;SDS011;33708;49.466;11.176;2023-11-21T01:55:08;4.50;;;1.97;;
4698;SDS011;33708;49.466;11.176;2023-11-21T01:57:35;5.03;;;1.70;;
4698;SDS011;33708;49.466;11.176;2023-11-21T02:00:02;5.67;;;1.83;;
4698;SDS011;33708;49.466;11.176;2023-11-21T02:02:43;13.10;;;1.80;;
4698;SDS011;33708;49.466;11.176;2023-11-21T02:05:13;3.57;;;1.47;;
4698;SDS011;33708;49.466;11.176;2023-11-21T02:07:41;8.80;;;1.60;;
4698;SDS011;33708;49.466;11.176;2023-11-21T02:10:07;3.33;;;1.20;;
4698;SDS011;33708;49.466;11.176;2023-11-21T02:12:34;5.30;;;1.50;;
4698;SDS011;33708;49.466;11.176;2023-11-21T02:15:04;3.73;;;1.47;;
4698;SDS011;33708;49.466;11.176;2023-11-21T02:17:34;3.20;;;1.00;;
4698;SDS011;33708;49.466;11.176;2023-11-21T02:20:00;4.33;;;1.30;;
4698;SDS011;33708;49.466;11.176;2023-11-21T02:22:29;2.50;;;1.07;;
4698;SDS011;33708;49.466;11.176;2023-11-21T02:24:59;5.20;;;1.27;;
4698;SDS011;33708;49.466;11.176;2023-11-21T02:27:24;2.93;;;1.10;;
4698;SDS011;33708;49.466;11.176;2023-11-21T02:29:52;3.83;;;1.07;;
4698;SDS011;33708;49.466;11.176;2023-11-21T02:32:17;3.10;;;1.30;;
4698;SDS011;33708;49.466;11.176;2023-11-21T02:34:44;3.90;;;1.30;;
4698;SDS011;33708;49.466;11.176;2023-11-21T02:37:10;5.60;;;1.33;;
4698;SDS011;33708;49.466;11.176;2023-11-21T02:39:35;6.50;;;1.57;;
4698;SDS011;33708;49.466;11.176;2023-11-21T02:42:01;5.20;;;1.47;;
4698;SDS011;33708;49.466;11.176;2023-11-21T02:44:26;4.70;;;1.00;;
4698;SDS011;33708;49.466;11.176;2023-11-21T02:46:52;2.83;;;0.90;;
4698;SDS011;33708;49.466;11.176;2023-11-21T02:49:17;4.87;;;1.07;;
4698;SDS011;33708;49.466;11.176;2023-11-21T02:51:43;6.30;;;1.33;;
4698;SDS011;33708;49.466;11.176;2023-11-21T02:54:09;5.97;;;1.40;;
4698;SDS011;33708;49.466;11.176;2023-11-21T02:56:35;5.30;;;1.07;;
4698;SDS011;33708;49.466;11.176;2023-11-21T02:59:00;6.60;;;1.10;;
4698;SDS011;33708;49.466;11.176;2023-11-21T03:01:26;2.53;;;1.10;;
4698;SDS011;33708;49.466;11.176;2023-11-21T03:03:52;3.30;;;1.20;;
4698;SDS011;33708;49.466;11.176;2023-11-21T03:06:21;5.53;;;1.83;;
4698;SDS011;33708;49.466;11.176;2023-11-21T03:08:47;7.10;;;1.53;;
4698;SDS011;33708;49.466;11.176;2023-11-21T03:11:13;3.97;;;1.50;;
4698;SDS011;33708;49.466;11.176;2023-11-21T03:13:40;3.70;;;1.47;;
4698;SDS011;33708;49.466;11.176;2023-11-21T03:16:07;7.57;;;2.00;;
4698;SDS011;33708;49.466;11.176;2023-11-21T03:18:37;4.37;;;1.47;;
4698;SDS011;33708;49.466;11.176;2023-11-21T03:21:03;4.77;;;1.23;;
4698;SDS011;33708;49.466;11.176;2023-11-21T03:23:30;6.07;;;1.40;;
4698;SDS011;33708;49.466;11.176;2023-11-21T03:25:56;3.90;;;1.20;;
4698;SDS011;33708;49.466;11.176;2023-11-21T03:28:21;3.57;;;1.17;;
4698;SDS011;33708;49.466;11.176;2023-11-21T03:30:47;6.00;;;1.60;;
4698;SDS011;33708;49.466;11.176;2023-11-21T03:33:12;5.83;;;1.50;;
4698;SDS011;33708;49.466;11.176;2023-11-21T03:35:38;4.87;;;1.60;;
4698;SDS011;33708;49.466;11.176;2023-11-21T03:38:03;9.33;;;1.70;;
4698;SDS011;33708;49.466;11.176;2023-11-21T03:40:29;7.40;;;1.70;;
4698;SDS011;33708;49.466;11.176;2023-11-21T03:42:56;9.00;;;2.40;;
4698;SDS011;33708;49.466;11.176;2023-11-21T03:45:22;11.20;;;1.63;;
4698;SDS011;33708;49.466;11.176;2023-11-21T03:47:48;7.93;;;1.83;;
4698;SDS011;33708;49.466;11.176;2023-11-21T03:50:13;8.73;;;2.13;;
4698;SDS011;33708;49.466;11.176;2023-11-21T03:52:39;9.40;;;1.80;;
4698;SDS011;33708;49.466;11.176;2023-11-21T03:55:04;3.20;;;1.67;;
4698;SDS011;33708;49.466;11.176;2023-11-21T03:57:30;5.73;;;2.10;;
4698;SDS011;33708;49.466;11.176;2023-11-21T03:59:56;5.10;;;1.73;;
4698;SDS011;33708;49.466;11.176;2023-11-21T04:02:21;6.23;;;2.07;;
4698;SDS011;33708;49.466;11.176;2023-11-21T04:04:47;6.57;;;1.83;;
4698;SDS011;33708;49.466;11.176;2023-11-21T04:07:12;4.37;;;1.70;;
4698;SDS011;33708;49.466;11.176;2023-11-21T04:09:38;7.93;;;1.87;;
4698;SDS011;33708;49.466;11.176;2023-11-21T04:12:06;4.70;;;1.37;;
4698;SDS011;33708;49.466;11.176;2023-11-21T04:14:33;7.53;;;2.63;;
4698;SDS011;33708;49.466;11.176;2023-11-21T04:16:59;5.20;;;1.67;;
4698;SDS011;33708;49.466;11.176;2023-11-21T04:19:25;3.60;;;1.50;;
4698;SDS011;33708;49.466;11.176;2023-11-21T04:21:50;6.13;;;1.40;;
4698;SDS011;33708;49.466;11.176;2023-11-21T04:24:16;3.00;;;1.13;;
4698;SDS011;33708;49.466;11.176;2023-11-21T04:26:43;3.57;;;1.53;;
4698;SDS011;33708;49.466;11.176;2023-11-21T04:29:09;4.37;;;1.50;;
4698;SDS011;33708;49.466;11.176;2023-11-21T04:31:34;5.60;;;1.80;;
4698;SDS011;33708;49.466;11.176;2023-11-21T04:34:00;5.93;;;1.73;;
4698;SDS011;33708;49.466;11.176;2023-11-21T04:36:26;5.00;;;1.50;;
4698;SDS011;33708;49.466;11.176;2023-11-21T04:38:51;3.60;;;1.37;;
4698;SDS011;33708;49.466;11.176;2023-11-21T04:41:17;6.10;;;1.60;;
4698;SDS011;33708;49.466;11.176;2023-11-21T04:43:43;5.33;;;1.63;;
4698;SDS011;33708;49.466;11.176;2023-11-21T04:46:08;6.77;;;1.63;;
4698;SDS011;33708;49.466;11.176;2023-11-21T04:48:34;4.10;;;1.70;;
4698;SDS011;33708;49.466;11.176;2023-11-21T04:50:59;3.30;;;1.20;;
4698;SDS011;33708;49.466;11.176;2023-11-21T04:53:25;4.83;;;1.70;;
4698;SDS011;33708;49.466;11.176;2023-11-21T04:55:50;4.60;;;1.97;;
4698;SDS011;33708;49.466;11.176;2023-11-21T04:58:16;5.17;;;1.93;;
4698;SDS011;33708;49.466;11.176;2023-11-21T05:00:42;5.10;;;1.57;;
4698;SDS011;33708;49.466;11.176;2023-11-21T05:03:07;6.50;;;1.60;;
4698;SDS011;33708;49.466;11.176;2023-11-21T05:05:34;4.07;;;1.40;;
4698;SDS011;33708;49.466;11.176;2023-11-21T05:08:00;13.30;;;3.00;;
4698;SDS011;33708;49.466;11.176;2023-11-21T05:10:26;6.17;;;2.00;;
4698;SDS011;33708;49.466;11.176;2023-11-21T05:12:52;6.20;;;2.23;;
4698;SDS011;33708;49.466;11.176;2023-11-21T05:15:17;4.77;;;1.70;;
4698;SDS011;33708;49.466;11.176;2023-11-21T05:17:44;5.03;;;1.77;;
4698;SDS011;33708;49.466;11.176;2023-11-21T05:20:11;6.60;;;1.67;;
4698;SDS011;33708;49.466;11.176;2023-11-21T05:22:38;7.20;;;2.00;;
4698;SDS011;33708;49.466;11.176;2023-11-21T05:25:05;8.10;;;2.40;;
4698;SDS011;33708;49.466;11.176;2023-11-21T05:27:33;7.33;;;1.87;;
4698;SDS011;33708;49.466;11.176;2023-11-21T05:30:00;5.03;;;1.80;;
4698;SDS011;33708;49.466;11.176;2023-11-21T05:32:27;9.63;;;2.23;;
4698;SDS011;33708;49.466;11.176;2023-11-21T05:34:53;8.20;;;2.20;;
4698;SDS011;33708;49.466;11.176;2023-11-21T05:37:18;5.30;;;2.13;;
4698;SDS011;33708;49.466;11.176;2023-11-21T05:39:44;6.10;;;2.30;;
4698;SDS011;33708;49.466;11.176;2023-11-21T05:42:09;9.30;;;2.80;;
4698;SDS011;33708;49.466;11.176;2023-11-21T05:44:36;6.53;;;2.13;;
4698;SDS011;33708;49.466;11.176;2023-11-21T05:47:06;6.97;;;2.20;;
4698;SDS011;33708;49.466;11.176;2023-11-21T05:49:32;4.93;;;1.80;;
4698;SDS011;33708;49.466;11.176;2023-11-21T05:51:58;6.57;;;2.20;;
4698;SDS011;33708;49.466;11.176;2023-11-21T05:54:24;5.03;;;2.13;;
4698;SDS011;33708;49.466;11.176;2023-11-21T05:56:51;9.10;;;2.40;;
4698;SDS011;33708;49.466;11.176;2023-11-21T05:59:16;7.97;;;2.77;;
4698;SDS011;33708;49.466;11.176;2023-11-21T06:01:42;7.30;;;2.13;;
4698;SDS011;33708;49.466;11.176;2023-11-21T06:04:08;6.30;;;2.80;;
4698;SDS011;33708;49.466;11.176;2023-11-21T06:06:34;4.23;;;2.33;;
4698;SDS011;33708;49.466;11.176;2023-11-21T06:09:00;7.23;;;2.53;;
4698;SDS011;33708;49.466;11.176;2023-11-21T06:11:26;7.00;;;2.47;;
4698;SDS011;33708;49.466;11.176;2023-11-21T06:13:51;4.73;;;2.20;;
4698;SDS011;33708;49.466;11.176;2023-11-21T06:16:18;8.00;;;2.97;;
4698;SDS011;33708;49.466;11.176;2023-11-21T06:18:47;7.93;;;2.93;;
4698;SDS011;33708;49.466;11.176;2023-11-21T06:21:12;5.50;;;2.57;;
4698;SDS011;33708;49.466;11.176;2023-11-21T06:23:38;4.57;;;2.67;;
4698;SDS011;33708;49.466;11.176;2023-11-21T06:26:04;5.20;;;2.93;;
4698;SDS011;33708;49.466;11.176;2023-11-21T06:28:31;7.03;;;2.90;;
4698;SDS011;33708;49.466;11.176;2023-11-21T06:30:57;7.73;;;3.53;;
4698;SDS011;33708;49.466;11.176;2023-11-21T06:33:23;6.10;;;2.73;;
4698;SDS011;33708;49.466;11.176;2023-11-21T06:35:49;8.80;;;2.93;;
4698;SDS011;33708;49.466;11.176;2023-11-21T06:38:14;5.80;;;3.00;;
4698;SDS011;33708;49.466;11.176;2023-11-21T06:40:40;6.63;;;3.50;;
4698;SDS011;33708;49.466;11.176;2023-11-21T06:43:06;10.97;;;3.40;;
4698;SDS011;33708;49.466;11.176;2023-11-21T06:45:32;5.10;;;3.10;;
4698;SDS011;33708;49.466;11.176;2023-11-21T06:47:59;5.50;;;2.67;;
4698;SDS011;33708;49.466;11.176;2023-11-21T06:50:25;6.20;;;3.27;;
4698;SDS011;33708;49.466;11.176;2023-11-21T06:52:51;4.50;;;2.70;;
4698;SDS011;33708;49.466;11.176;2023-11-21T06:55:16;11.17;;;3.43;;
4698;SDS011;33708;49.466;11.176;2023-11-21T06:57:42;7.93;;;3.17;;
4698;SDS011;33708;49.466;11.176;2023-11-21T07:00:08;8.50;;;3.43;;
4698;SDS011;33708;49.466;11.176;2023-11-21T07:02:34;8.10;;;3.53;;
4698;SDS011;33708;49.466;11.176;2023-11-21T07:05:00;6.23;;;3.80;;
4698;SDS011;33708;49.466;11.176;2023-11-21T07:07:26;6.63;;;3.57;;
4698;SDS011;33708;49.466;11.176;2023-11-21T07:09:52;6.67;;;2.93;;
4698;SDS011;33708;49.466;11.176;2023-11-21T07:12:18;7.47;;;3.70;;
4698;SDS011;33708;49.466;11.176;2023-11-21T07:14:43;6.60;;;3.90;;
4698;SDS011;33708;49.466;11.176;2023-11-21T07:17:10;11.27;;;7.60;;
4698;SDS011;33708;49.466;11.176;2023-11-21T07:19:37;8.30;;;3.93;;
4698;SDS011;33708;49.466;11.176;2023-11-21T07:22:03;7.67;;;3.07;;
4698;SDS011;33708;49.466;11.176;2023-11-21T07:24:31;5.20;;;2.80;;
4698;SDS011;33708;49.466;11.176;2023-11-21T07:26:57;7.57;;;2.77;;
4698;SDS011;33708;49.466;11.176;2023-11-21T07:29:23;9.60;;;3.40;;
4698;SDS011;33708;49.466;11.176;2023-11-21T07:31:54;4.43;;;2.50;;
4698;SDS011;33708;49.466;11.176;2023-11-21T07:34:20;7.07;;;3.17;;
4698;SDS011;33708;49.466;11.176;2023-11-21T07:36:46;7.03;;;2.87;;
4698;SDS011;33708;49.466;11.176;2023-11-21T07:39:12;8.60;;;3.50;;
4698;SDS011;33708;49.466;11.176;2023-11-21T07:41:38;6.90;;;2.90;;
4698;SDS011;33708;49.466;11.176;2023-11-21T07:44:10;4.60;;;2.63;;
4698;SDS011;33708;49.466;11.176;2023-11-21T07:46:35;9.30;;;2.90;;
4698;SDS011;33708;49.466;11.176;2023-11-21T07:49:01;7.60;;;3.13;;
4698;SDS011;33708;49.466;11.176;2023-11-21T07:51:26;7.70;;;3.20;;
4698;SDS011;33708;49.466;11.176;2023-11-21T07:53:52;7.37;;;3.60;;
4698;SDS011;33708;49.466;11.176;2023-11-21T07:56:17;4.80;;;3.00;;
4698;SDS011;33708;49.466;11.176;2023-11-21T07:58:43;10.20;;;3.77;;
4698;SDS011;33708;49.466;11.176;2023-11-21T08:01:09;8.80;;;3.57;;
4698;SDS011;33708;49.466;11.176;2023-11-21T08:03:35;7.13;;;3.17;;
4698;SDS011;33708;49.466;11.176;2023-11-21T08:06:02;9.23;;;3.40;;
4698;SDS011;33708;49.466;11.176;2023-11-21T08:08:30;15.13;;;3.30;;
4698;SDS011;33708;49.466;11.176;2023-11-21T08:10:57;7.40;;;3.17;;
4698;SDS011;33708;49.466;11.176;2023-11-21T08:13:23;4.40;;;3.07;;
4698;SDS011;33708;49.466;11.176;2023-11-21T08:15:56;8.53;;;3.00;;
4698;SDS011;33708;49.466;11.176;2023-11-21T08:18:26;5.40;;;3.50;;
4698;SDS011;33708;49.466;11.176;2023-11-21T08:20:52;4.93;;;2.80;;
4698;SDS011;33708;49.466;11.176;2023-11-21T08:23:20;7.10;;;3.33;;
4698;SDS011;33708;49.466;11.176;2023-11-21T08:25:45;5.23;;;3.00;;
4698;SDS011;33708;49.466;11.176;2023-11-21T08:28:11;5.80;;;3.30;;
4698;SDS011;33708;49.466;11.176;2023-11-21T08:30:41;8.07;;;3.00;;
4698;SDS011;33708;49.466;11.176;2023-11-21T08:33:07;7.07;;;3.23;;
4698;SDS011;33708;49.466;11.176;2023-11-21T08:35:34;6.80;;;3.20;;
4698;SDS011;33708;49.466;11.176;2023-11-21T08:38:01;8.50;;;3.93;;
4698;SDS011;33708;49.466;11.176;2023-11-21T08:40:27;6.10;;;3.10;;
4698;SDS011;33708;49.466;11.176;2023-11-21T08:42:52;6.00;;;2.90;;
4698;SDS011;33708;49.466;11.176;2023-11-21T08:45:18;10.30;;;3.93;;
4698;SDS011;33708;49.466;11.176;2023-11-21T08:47:45;7.70;;;3.47;;
4698;SDS011;33708;49.466;11.176;2023-11-21T08:50:10;6.33;;;3.80;;
4698;SDS011;33708;49.466;11.176;2023-11-21T08:52:37;5.57;;;3.80;;
4698;SDS011;33708;49.466;11.176;2023-11-21T08:55:04;7.77;;;5.07;;
4698;SDS011;33708;49.466;11.176;2023-11-21T08:57:35;8.20;;;5.10;;
4698;SDS011;33708;49.466;11.176;2023-11-21T09:00:05;7.37;;;4.83;;
4698;SDS011;33708;49.466;11.176;2023-11-21T09:02:36;6.83;;;4.30;;
4698;SDS011;33708;49.466;11.176;2023-11-21T09:05:08;8.77;;;4.13;;
4698;SDS011;33708;49.466;11.176;2023-11-21T09:07:38;9.17;;;4.30;;
4698;SDS011;33708;49.466;11.176;2023-11-21T09:10:05;8.37;;;5.00;;
4698;SDS011;33708;49.466;11.176;2023-11-21T09:12:32;7.43;;;4.57;;
4698;SDS011;33708;49.466;11.176;2023-11-21T09:14:59;11.90;;;5.93;;
4698;SDS011;33708;49.466;11.176;2023-11-21T09:17:27;11.80;;;5.93;;
4698;SDS011;33708;49.466;11.176;2023-11-21T09:19:52;10.90;;;5.67;;
4698;SDS011;33708;49.466;11.176;2023-11-21T09:22:18;10.73;;;5.90;;
4698;SDS011;33708;49.466;11.176;2023-11-21T09:24:43;11.37;;;4.60;;
4698;SDS011;33708;49.466;11.176;2023-11-21T09:27:09;14.03;;;6.07;;
4698;SDS011;33708;49.466;11.176;2023-11-21T09:29:36;10.20;;;5.40;;
4698;SDS011;33708;49.466;11.176;2023-11-21T09:32:03;10.57;;;5.37;;
4698;SDS011;33708;49.466;11.176;2023-11-21T09:34:31;10.17;;;5.70;;
4698;SDS011;33708;49.466;11.176;2023-11-21T09:36:58;9.27;;;5.37;;
4698;SDS011;33708;49.466;11.176;2023-11-21T09:39:24;9.50;;;5.00;;
4698;SDS011;33708;49.466;11.176;2023-11-21T09:41:50;7.83;;;5.60;;
4698;SDS011;33708;49.466;11.176;2023-11-21T09:44:22;7.20;;;4.80;;
4698;SDS011;33708;49.466;11.176;2023-11-21T09:47:00;9.43;;;5.63;;
4698;SDS011;33708;49.466;11.176;2023-11-21T09:49:27;6.53;;;3.83;;
4698;SDS011;33708;49.466;11.176;2023-11-21T09:51:56;7.40;;;4.80;;
4698;SDS011;33708;49.466;11.176;2023-11-21T09:54:28;20.10;;;6.30;;
4698;SDS011;33708;49.466;11.176;2023-11-21T09:56:56;10.53;;;5.43;;
4698;SDS011;33708;49.466;11.176;2023-11-21T09:59:23;7.57;;;3.57;;
4698;SDS011;33708;49.466;11.176;2023-11-21T10:01:49;7.03;;;4.00;;
4698;SDS011;33708;49.466;11.176;2023-11-21T10:04:15;7.30;;;4.43;;
4698;SDS011;33708;49.466;11.176;2023-11-21T10:06:42;5.27;;;3.10;;
4698;SDS011;33708;49.466;11.176;2023-11-21T10:09:10;6.60;;;3.50;;
4698;SDS011;33708;49.466;11.176;2023-11-21T10:11:41;9.43;;;3.73;;
4698;SDS011;33708;49.466;11.176;2023-11-21T10:14:10;6.60;;;3.83;;
4698;SDS011;33708;49.466;11.176;2023-11-21T10:16:38;10.40;;;4.33;;
4698;SDS011;33708;49.466;11.176;2023-11-21T10:19:05;5.00;;;3.23;;
4698;SDS011;33708;49.466;11.176;2023-11-21T10:21:34;5.40;;;3.47;;
4698;SDS011;33708;49.466;11.176;2023-11-21T10:24:00;6.73;;;3.73;;
4698;SDS011;33708;49.466;11.176;2023-11-21T10:26:26;5.87;;;3.10;;
4698;SDS011;33708;49.466;11.176;2023-11-21T10:28:57;10.03;;;3.67;;
4698;SDS011;33708;49.466;11.176;2023-11-21T10:31:30;11.17;;;3.53;;
4698;SDS011;33708;49.466;11.176;2023-11-21T10:36:40;5.97;;;3.40;;
4698;SDS011;33708;49.466;11.176;2023-11-21T10:39:06;7.13;;;3.40;;
4698;SDS011;33708;49.466;11.176;2023-11-21T10:41:32;5.43;;;3.00;;
4698;SDS011;33708;49.466;11.176;2023-11-21T10:43:58;6.70;;;3.30;;
4698;SDS011;33708;49.466;11.176;2023-11-21T10:46:23;4.47;;;2.77;;
4698;SDS011;33708;49.466;11.176;2023-11-21T10:48:54;4.43;;;2.33;;
4698;SDS011;33708;49.466;11.176;2023-11-21T10:51:21;5.90;;;2.60;;
4698;SDS011;33708;49.466;11.176;2023-11-21T10:53:47;4.63;;;2.43;;
4698;SDS011;33708;49.466;11.176;2023-11-21T10:56:15;7.20;;;2.17;;
4698;SDS011;33708;49.466;11.176;2023-11-21T10:58:46;6.70;;;2.00;;
4698;SDS011;33708;49.466;11.176;2023-11-21T11:01:17;4.17;;;2.33;;
4698;SDS011;33708;49.466;11.176;2023-11-21T11:03:44;5.57;;;2.00;;
4698;SDS011;33708;49.466;11.176;2023-11-21T11:06:10;4.10;;;2.33;;
4698;SDS011;33708;49.466;11.176;2023-11-21T11:08:37;6.07;;;2.63;;
4698;SDS011;33708;49.466;11.176;2023-11-21T11:11:07;4.67;;;2.10;;
4698;SDS011;33708;49.466;11.176;2023-11-21T11:13:35;8.03;;;2.00;;
4698;SDS011;33708;49.466;11.176;2023-11-21T11:16:02;4.47;;;2.03;;
4698;SDS011;33708;49.466;11.176;2023-11-21T11:18:32;6.50;;;2.43;;
4698;SDS011;33708;49.466;11.176;2023-11-21T11:21:16;5.77;;;2.73;;
4698;SDS011;33708;49.466;11.176;2023-11-21T11:26:37;5.93;;;2.40;;
4698;SDS011;33708;49.466;11.176;2023-11-21T11:29:10;7.90;;;2.43;;
4698;SDS011;33708;49.466;11.176;2023-11-21T11:34:30;4.20;;;2.20;;
4698;SDS011;33708;49.466;11.176;2023-11-21T11:37:00;4.33;;;2.13;;
4698;SDS011;33708;49.466;11.176;2023-11-21T11:39:38;7.40;;;2.43;;
4698;SDS011;33708;49.466;11.176;2023-11-21T11:42:07;9.50;;;2.00;;
4698;SDS011;33708;49.466;11.176;2023-11-21T11:47:18;4.20;;;2.30;;
4698;SDS011;33708;49.466;11.176;2023-11-21T11:52:39;5.77;;;2.20;;
4698;SDS011;33708;49.466;11.176;2023-11-21T11:55:06;3.60;;;2.20;;
4698;SDS011;33708;49.466;11.176;2023-11-21T11:57:37;4.70;;;2.67;;
4698;SDS011;33708;49.466;11.176;2023-11-21T12:00:07;6.33;;;2.27;;
4698;SDS011;33708;49.466;11.176;2023-11-21T12:02:37;6.10;;;2.20;;
4698;SDS011;33708;49.466;11.176;2023-11-21T12:05:10;4.80;;;2.07;;
4698;SDS011;33708;49.466;11.176;2023-11-21T12:10:18;4.20;;;2.23;;
4698;SDS011;33708;49.466;11.176;2023-11-21T12:12:45;6.20;;;1.90;;
4698;SDS011;33708;49.466;11.176;2023-11-21T12:15:14;5.47;;;2.10;;
4698;SDS011;33708;49.466;11.176;2023-11-21T12:17:41;5.00;;;2.30;;
4698;SDS011;33708;49.466;11.176;2023-11-21T12:20:13;4.70;;;2.30;;
4698;SDS011;33708;49.466;11.176;2023-11-21T12:22:44;4.90;;;2.30;;
4698;SDS011;33708;49.466;11.176;2023-11-21T12:25:26;4.83;;;2.70;;
4698;SDS011;33708;49.466;11.176;2023-11-21T12:28:00;4.90;;;2.17;;
4698;SDS011;33708;49.466;11.176;2023-11-21T12:30:28;4.57;;;2.40;;
4698;SDS011;33708;49.466;11.176;2023-11-21T12:32:56;7.13;;;2.13;;
4698;SDS011;33708;49.466;11.176;2023-11-21T12:35:26;4.20;;;2.30;;
4698;SDS011;33708;49.466;11.176;2023-11-21T12:37:57;4.10;;;2.37;;
4698;SDS011;33708;49.466;11.176;2023-11-21T12:40:22;4.33;;;2.23;;
4698;SDS011;33708;49.466;11.176;2023-11-21T12:42:49;8.47;;;1.87;;
4698;SDS011;33708;49.466;11.176;2023-11-21T12:45:19;3.80;;;2.20;;
4698;SDS011;33708;49.466;11.176;2023-11-21T12:47:47;5.17;;;2.37;;
4698;SDS011;33708;49.466;11.176;2023-11-21T12:50:20;6.30;;;3.37;;
4698;SDS011;33708;49.466;11.176;2023-11-21T12:52:53;7.90;;;3.60;;
4698;SDS011;33708;49.466;11.176;2023-11-21T12:55:23;8.30;;;3.00;;
4698;SDS011;33708;49.466;11.176;2023-11-21T12:57:49;4.33;;;2.67;;
4698;SDS011;33708;49.466;11.176;2023-11-21T13:00:32;5.60;;;2.77;;
4698;SDS011;33708;49.466;11.176;2023-11-21T13:03:02;5.30;;;2.80;;
4698;SDS011;33708;49.466;11.176;2023-11-21T13:05:32;5.40;;;2.97;;
4698;SDS011;33708;49.466;11.176;2023-11-21T13:08:03;6.47;;;2.47;;
4698;SDS011;33708;49.466;11.176;2023-11-21T13:10:32;6.53;;;2.63;;
4698;SDS011;33708;49.466;11.176;2023-11-21T13:13:01;7.10;;;4.10;;
4698;SDS011;33708;49.466;11.176;2023-11-21T13:15:30;4.33;;;2.73;;
4698;SDS011;33708;49.466;11.176;2023-11-21T13:17:57;8.43;;;4.40;;
4698;SDS011;33708;49.466;11.176;2023-11-21T13:20:24;7.17;;;3.00;;
4698;SDS011;33708;49.466;11.176;2023-11-21T13:22:54;4.37;;;2.70;;
4698;SDS011;33708;49.466;11.176;2023-11-21T13:25:27;6.30;;;2.30;;
4698;SDS011;33708;49.466;11.176;2023-11-21T13:27:54;8.77;;;3.00;;
4698;SDS011;33708;49.466;11.176;2023-11-21T13:30:20;7.40;;;2.73;;
4698;SDS011;33708;49.466;11.176;2023-11-21T13:32:51;9.73;;;1.80;;
4698;SDS011;33708;49.466;11.176;2023-11-21T13:35:18;8.63;;;2.60;;
4698;SDS011;33708;49.466;11.176;2023-11-21T13:37:55;5.83;;;2.27;;
4698;SDS011;33708;49.466;11.176;2023-11-21T13:40:25;7.37;;;2.77;;
4698;SDS011;33708;49.466;11.176;2023-11-21T13:42:54;6.23;;;2.40;;
4698;SDS011;33708;49.466;11.176;2023-11-21T13:45:22;5.33;;;2.90;;
4698;SDS011;33708;49.466;11.176;2023-11-21T13:47:52;7.03;;;2.40;;
4698;SDS011;33708;49.466;11.176;2023-11-21T13:50:25;9.60;;;2.93;;
4698;SDS011;33708;49.466;11.176;2023-11-21T13:53:00;6.80;;;2.50;;
4698;SDS011;33708;49.466;11.176;2023-11-21T13:55:41;4.07;;;2.70;;
4698;SDS011;33708;49.466;11.176;2023-11-21T13:58:07;6.23;;;2.47;;
4698;SDS011;33708;49.466;11.176;2023-11-21T14:00:36;4.17;;;2.20;;
4698;SDS011;33708;49.466;11.176;2023-11-21T14:03:12;6.77;;;2.67;;
4698;SDS011;33708;49.466;11.176;2023-11-21T14:05:45;6.47;;;2.77;;
4698;SDS011;33708;49.466;11.176;2023-11-21T14:08:15;4.97;;;2.50;;
4698;SDS011;33708;49.466;11.176;2023-11-21T14:10:48;7.27;;;2.20;;
4698;SDS011;33708;49.466;11.176;2023-11-21T14:13:20;5.70;;;2.30;;
4698;SDS011;33708;49.466;11.176;2023-11-21T14:15:48;10.00;;;2.80;;
4698;SDS011;33708;49.466;11.176;2023-11-21T14:18:16;4.30;;;2.00;;
4698;SDS011;33708;49.466;11.176;2023-11-21T14:20:42;6.43;;;2.40;;
4698;SDS011;33708;49.466;11.176;2023-11-21T14:23:09;6.57;;;2.37;;
4698;SDS011;33708;49.466;11.176;2023-11-21T14:25:37;3.33;;;2.13;;
4698;SDS011;33708;49.466;11.176;2023-11-21T14:28:04;6.43;;;2.97;;
4698;SDS011;33708;49.466;11.176;2023-11-21T14:30:31;4.43;;;2.63;;
4698;SDS011;33708;49.466;11.176;2023-11-21T14:32:59;7.30;;;2.90;;
4698;SDS011;33708;49.466;11.176;2023-11-21T14:35:26;5.40;;;2.67;;
4698;SDS011;33708;49.466;11.176;2023-11-21T14:37:52;7.83;;;3.00;;
4698;SDS011;33708;49.466;11.176;2023-11-21T14:40:20;6.03;;;2.50;;
4698;SDS011;33708;49.466;11.176;2023-11-21T14:42:49;9.30;;;2.63;;
4698;SDS011;33708;49.466;11.176;2023-11-21T14:45:19;9.43;;;2.60;;
4698;SDS011;33708;49.466;11.176;2023-11-21T14:47:48;4.40;;;2.53;;
4698;SDS011;33708;49.466;11.176;2023-11-21T14:50:34;11.63;;;3.10;;
4698;SDS011;33708;49.466;11.176;2023-11-21T14:53:14;12.43;;;3.30;;
4698;SDS011;33708;49.466;11.176;2023-11-21T14:55:40;12.60;;;3.00;;
4698;SDS011;33708;49.466;11.176;2023-11-21T14:58:15;10.23;;;2.93;;
4698;SDS011;33708;49.466;11.176;2023-11-21T15:00:51;5.50;;;2.87;;
4698;SDS011;33708;49.466;11.176;2023-11-21T15:03:22;14.67;;;3.90;;